Terminal Aerodrome Forecast
Issued by NWS Charleston, WV

Current Version | Previous Version | Text Only | Print | Product List | Glossary Off
Versions: 1 2 3 4 5 6 7 8 9 10 11 12 13 14 15 16 17 18 19 20 21 22 23 24 25

144
FTUS41 KRLX 152111 AAA
TAFHTS
TAF AMD
KHTS 152111Z 1521/1618 21010G20KT P6SM SCT030
     FM152230 22010G17KT 4SM SHRA BR OVC025
     FM152330 28010G22KT P6SM -SHRA BKN015
     FM160200 32009G17KT P6SM BKN025
     FM161000 34007KT P6SM SCT025
     FM161600 34005KT P6SM FEW200=

USA.gov is the U.S. government's official web portal to all federal, state and local government web resources and services.